createdAt,value
2022-10-20T00:00:59.100Z,2.10
2022-10-20T00:03:28.236Z,2.90
2022-10-20T00:05:56.165Z,2.13
2022-10-20T00:08:24.145Z,2.80
2022-10-20T00:10:57.244Z,2.55
2022-10-20T00:13:25.445Z,2.40
2022-10-20T00:15:55.040Z,2.30
2022-10-20T00:18:24.223Z,2.58
2022-10-20T00:20:52.834Z,2.38
2022-10-20T00:23:21.597Z,2.47
2022-10-20T00:25:49.512Z,2.55
2022-10-20T00:28:18.675Z,2.40
2022-10-20T00:30:46.482Z,2.53
2022-10-20T00:33:14.418Z,2.15
2022-10-20T00:35:42.291Z,2.45
2022-10-20T00:38:10.186Z,2.20
2022-10-20T00:40:38.119Z,2.75
2022-10-20T00:43:06.053Z,2.20
2022-10-20T00:45:35.455Z,1.90
2022-10-20T00:48:07.789Z,2.17
2022-10-20T00:50:41.575Z,2.20
2022-10-20T00:53:09.692Z,2.05
2022-10-20T00:55:41.903Z,2.00
2022-10-20T00:58:10.333Z,2.03
2022-10-20T01:00:42.354Z,2.05
2022-10-20T01:03:16.478Z,2.10
2022-10-20T01:05:44.529Z,1.95
2022-10-20T01:08:12.386Z,2.28
2022-10-20T01:10:47.823Z,1.95
2022-10-20T01:13:26.642Z,2.05
2022-10-20T01:16:04.741Z,1.90
2022-10-20T01:18:43.053Z,2.30
2022-10-20T01:21:27.957Z,1.50
2022-10-20T01:24:09.780Z,2.40
2022-10-20T01:27:12.950Z,2.45
2022-10-20T01:29:47.318Z,1.90
2022-10-20T01:32:23.331Z,2.00
2022-10-20T01:34:58.908Z,1.92
2022-10-20T01:37:48.607Z,2.05
2022-10-20T01:40:25.312Z,1.90
2022-10-20T01:42:55.198Z,2.47
2022-10-20T01:45:28.826Z,2.10
2022-10-20T01:47:59.565Z,2.30
2022-10-20T01:50:27.806Z,2.10
2022-10-20T01:52:57.382Z,1.75
2022-10-20T01:55:25.837Z,1.75
2022-10-20T01:58:10.190Z,1.65
2022-10-20T02:00:40.718Z,2.33
2022-10-20T02:03:23.989Z,2.25
2022-10-20T02:06:03.768Z,2.75
2022-10-20T02:08:38.528Z,2.10
2022-10-20T02:11:10.510Z,1.90
2022-10-20T02:13:40.674Z,2.33
2022-10-20T02:16:14.634Z,2.17
2022-10-20T02:18:44.983Z,1.85
2022-10-20T02:21:13.296Z,1.95
2022-10-20T02:23:45.738Z,1.98
2022-10-20T02:26:16.264Z,2.30
2022-10-20T02:28:48.488Z,1.98
2022-10-20T02:31:18.497Z,2.30
2022-10-20T02:33:48.120Z,2.13
2022-10-20T02:36:18.523Z,1.90
2022-10-20T02:38:46.811Z,1.98
2022-10-20T02:41:14.838Z,2.22
2022-10-20T02:43:42.673Z,2.38
2022-10-20T02:46:10.730Z,2.00
2022-10-20T02:48:40.066Z,2.10
2022-10-20T02:51:07.910Z,1.90
2022-10-20T02:53:35.818Z,2.13
2022-10-20T02:56:03.694Z,1.83
2022-10-20T02:58:31.556Z,2.13
2022-10-20T03:00:59.562Z,2.13
2022-10-20T03:03:27.556Z,2.30
2022-10-20T03:05:56.866Z,2.25
2022-10-20T03:08:24.896Z,2.10
2022-10-20T03:10:52.898Z,1.92
2022-10-20T03:13:20.824Z,1.88
2022-10-20T03:15:48.757Z,2.00
2022-10-20T03:18:16.554Z,1.90
2022-10-20T03:20:45.318Z,1.90
2022-10-20T03:23:17.673Z,1.95
2022-10-20T03:25:48.368Z,2.10
2022-10-20T03:28:16.751Z,2.28
2022-10-20T03:30:46.428Z,2.10
2022-10-20T03:33:14.332Z,1.83
2022-10-20T03:35:42.202Z,1.95
2022-10-20T03:38:10.038Z,2.05
2022-10-20T03:40:39.219Z,2.10
2022-10-20T03:43:07.171Z,2.15
2022-10-20T03:45:35.124Z,2.75
2022-10-20T03:48:02.999Z,2.30
2022-10-20T03:50:30.827Z,2.28
2022-10-20T03:52:58.608Z,2.17
2022-10-20T03:55:26.615Z,2.47
2022-10-20T03:57:55.950Z,2.28
2022-10-20T04:00:23.884Z,2.20
2022-10-20T04:02:52.020Z,2.00
2022-10-20T04:05:21.772Z,2.17
2022-10-20T04:07:49.921Z,2.15
2022-10-20T04:10:18.507Z,2.20
2022-10-20T04:12:46.505Z,2.08
2022-10-20T04:15:18.388Z,2.67
2022-10-20T04:17:46.342Z,2.03
2022-10-20T04:20:14.153Z,2.58
2022-10-20T04:22:42.012Z,2.20
2022-10-20T04:25:12.018Z,2.20
2022-10-20T04:27:40.059Z,2.13
2022-10-20T04:30:09.721Z,2.42
2022-10-20T04:32:38.984Z,2.67
2022-10-20T04:35:07.757Z,2.50
2022-10-20T04:37:35.980Z,2.50
2022-10-20T04:40:04.565Z,2.60
2022-10-20T04:42:32.870Z,2.50
2022-10-20T04:45:00.718Z,2.50
2022-10-20T04:47:32.990Z,2.40
2022-10-20T04:50:02.269Z,2.58
2022-10-20T04:52:30.256Z,2.95
2022-10-20T04:54:58.094Z,3.00
2022-10-20T04:57:26.231Z,2.80
2022-10-20T04:59:54.089Z,2.70
2022-10-20T05:02:22.010Z,2.88
2022-10-20T05:04:49.787Z,2.60
2022-10-20T05:07:19.018Z,3.08
2022-10-20T05:09:47.035Z,2.85
2022-10-20T05:14:47.683Z,2.45
2022-10-20T05:17:15.637Z,2.90
2022-10-20T05:19:43.461Z,3.25
2022-10-20T05:22:11.313Z,2.92
2022-10-20T05:24:40.525Z,3.22
2022-10-20T05:27:08.511Z,3.17
2022-10-20T05:29:36.461Z,2.80
2022-10-20T05:32:04.468Z,3.25
2022-10-20T05:34:32.290Z,2.63
2022-10-20T05:37:00.141Z,2.55
2022-10-20T05:39:28.075Z,2.92
2022-10-20T05:41:57.521Z,3.22
2022-10-20T05:44:25.488Z,3.00
2022-10-20T05:46:53.370Z,3.10
2022-10-20T05:49:23.366Z,3.10
2022-10-20T05:51:51.215Z,3.33
2022-10-20T05:54:19.154Z,3.55
2022-10-20T05:56:47.316Z,3.30
2022-10-20T05:59:16.620Z,3.65
2022-10-20T06:01:49.094Z,3.42
2022-10-20T06:04:18.960Z,3.67
2022-10-20T06:06:48.886Z,3.95
2022-10-20T06:09:17.652Z,3.42
2022-10-20T06:11:45.596Z,3.17
2022-10-20T06:14:13.483Z,3.47
2022-10-20T06:16:42.734Z,3.50
2022-10-20T06:19:11.734Z,4.07
2022-10-20T06:21:39.956Z,3.60
2022-10-20T06:24:08.093Z,3.80
2022-10-20T06:26:37.795Z,3.60
2022-10-20T06:29:07.379Z,3.70
2022-10-20T06:31:36.720Z,3.85
2022-10-20T06:34:07.772Z,4.30
2022-10-20T06:36:37.096Z,4.10
2022-10-20T06:39:07.275Z,4.28
2022-10-20T06:41:35.664Z,4.20
2022-10-20T06:44:04.065Z,4.90
2022-10-20T06:46:35.203Z,4.07
2022-10-20T06:49:04.529Z,3.95
2022-10-20T06:51:35.266Z,4.32
2022-10-20T06:54:03.433Z,4.53
2022-10-20T06:56:33.967Z,4.43
2022-10-20T06:59:02.972Z,4.72
2022-10-20T07:01:32.410Z,4.70
2022-10-20T07:04:01.782Z,4.28
2022-10-20T07:06:31.718Z,4.13
2022-10-20T07:09:03.916Z,4.20
2022-10-20T07:11:33.198Z,4.63
2022-10-20T07:14:02.036Z,4.82
2022-10-20T07:16:31.821Z,4.68
2022-10-20T07:19:00.689Z,4.20
2022-10-20T07:21:34.941Z,4.93
2022-10-20T07:24:07.943Z,4.63
2022-10-20T07:26:37.804Z,5.10
2022-10-20T07:29:06.439Z,5.22
2022-10-20T07:31:37.107Z,5.03
2022-10-20T07:34:12.909Z,4.57
2022-10-20T07:36:49.309Z,4.53
2022-10-20T07:39:18.682Z,4.53
2022-10-20T07:41:48.165Z,4.78
2022-10-20T07:44:17.014Z,4.85
2022-10-20T07:46:45.588Z,5.75
2022-10-20T07:52:01.602Z,4.10
2022-10-20T07:54:31.878Z,4.57
2022-10-20T07:56:59.862Z,4.40
2022-10-20T07:59:29.479Z,4.20
2022-10-20T08:01:59.689Z,4.68
2022-10-20T08:04:28.908Z,5.10
2022-10-20T08:06:56.949Z,4.32
2022-10-20T08:09:25.205Z,4.72
2022-10-20T08:11:55.809Z,5.30
2022-10-20T08:14:26.938Z,4.50
2022-10-20T08:17:04.621Z,4.22
2022-10-20T08:19:58.456Z,4.40
2022-10-20T08:22:26.394Z,4.53
2022-10-20T08:24:54.727Z,3.85
2022-10-20T08:27:23.986Z,4.30
2022-10-20T08:30:00.178Z,4.45
2022-10-20T08:32:34.551Z,4.38
2022-10-20T08:35:03.330Z,3.70
2022-10-20T08:37:31.324Z,4.07
2022-10-20T08:39:59.250Z,4.10
2022-10-20T08:42:28.717Z,3.20
2022-10-20T08:44:59.556Z,3.40
2022-10-20T08:47:33.437Z,3.85
2022-10-20T08:50:03.503Z,3.80
2022-10-20T08:52:31.356Z,3.30
2022-10-20T08:54:59.712Z,3.60
2022-10-20T08:57:34.529Z,3.47
2022-10-20T09:00:15.389Z,3.28
2022-10-20T09:02:43.825Z,3.22
2022-10-20T09:05:16.675Z,3.53
2022-10-20T09:07:49.836Z,3.63
2022-10-20T09:10:26.861Z,3.72
2022-10-20T09:12:56.657Z,3.65
2022-10-20T09:15:26.656Z,3.15
2022-10-20T09:17:58.318Z,4.07
2022-10-20T09:20:30.958Z,3.35
2022-10-20T09:23:01.329Z,3.77
2022-10-20T09:25:32.441Z,3.38
2022-10-20T09:28:01.653Z,3.63
2022-10-20T09:30:35.565Z,3.70
2022-10-20T09:33:22.206Z,3.58
2022-10-20T09:35:51.691Z,3.75
2022-10-20T09:38:25.073Z,4.20
2022-10-20T09:43:27.788Z,3.60
2022-10-20T09:45:58.556Z,3.67
2022-10-20T09:48:30.298Z,3.80
2022-10-20T09:50:59.423Z,3.70
2022-10-20T09:53:31.872Z,3.55
2022-10-20T09:56:00.029Z,3.45
2022-10-20T09:58:33.895Z,3.10
2022-10-20T10:01:06.121Z,4.50
2022-10-20T10:03:40.529Z,3.45
2022-10-20T10:06:27.625Z,3.65
2022-10-20T10:08:57.007Z,3.63
2022-10-20T10:11:29.926Z,3.80
2022-10-20T10:13:59.898Z,3.55
2022-10-20T10:16:30.167Z,3.03
2022-10-20T10:19:01.912Z,3.75
2022-10-20T10:21:31.752Z,3.38
2022-10-20T10:24:02.238Z,3.20
2022-10-20T10:26:45.450Z,3.00
2022-10-20T10:29:26.204Z,3.25
2022-10-20T10:32:00.298Z,2.47
2022-10-20T10:34:43.639Z,2.55
2022-10-20T10:37:14.561Z,2.88
2022-10-20T10:39:43.339Z,2.58
2022-10-20T10:42:45.987Z,2.75
2022-10-20T10:45:20.430Z,2.60
2022-10-20T10:48:11.169Z,3.03
2022-10-20T10:50:45.532Z,2.85
2022-10-20T10:53:28.076Z,2.50
2022-10-20T10:56:05.374Z,2.58
2022-10-20T10:58:43.949Z,2.80
2022-10-20T11:01:42.440Z,2.60
2022-10-20T11:04:30.931Z,2.67
2022-10-20T11:07:07.553Z,2.40
2022-10-20T11:09:44.187Z,3.08
2022-10-20T11:12:30.644Z,2.70
2022-10-20T11:15:13.610Z,2.33
2022-10-20T11:17:54.440Z,2.70
2022-10-20T11:20:36.637Z,2.70
2022-10-20T11:26:13.568Z,2.83
2022-10-20T11:28:45.726Z,2.83
2022-10-20T11:31:23.796Z,2.85
2022-10-20T11:33:58.716Z,2.28
2022-10-20T11:36:32.755Z,2.60
2022-10-20T11:39:01.021Z,2.75
2022-10-20T11:41:34.808Z,2.28
2022-10-20T11:44:07.910Z,2.30
2022-10-20T11:46:40.082Z,2.70
2022-10-20T11:49:12.230Z,3.80
2022-10-20T11:52:12.886Z,3.35
2022-10-20T11:55:14.967Z,2.03
2022-10-20T11:58:05.386Z,2.22
2022-10-20T12:00:56.340Z,1.77
2022-10-20T12:04:00.147Z,2.40
2022-10-20T12:06:51.746Z,2.30
2022-10-20T12:09:33.635Z,2.28
2022-10-20T12:12:04.604Z,1.98
2022-10-20T12:14:39.008Z,2.35
2022-10-20T12:17:24.725Z,1.90
2022-10-20T12:19:53.501Z,2.05
2022-10-20T12:22:41.757Z,2.25
2022-10-20T12:25:37.855Z,1.60
2022-10-20T12:28:34.316Z,1.92
2022-10-20T12:31:03.736Z,1.98
2022-10-20T12:33:40.945Z,2.22
2022-10-20T12:36:27.968Z,2.40
2022-10-20T12:39:15.101Z,2.05
2022-10-20T12:41:47.567Z,2.40
2022-10-20T12:44:18.266Z,2.57
2022-10-20T12:46:56.588Z,1.88
2022-10-20T12:49:33.379Z,2.00
2022-10-20T12:52:03.747Z,2.35
2022-10-20T12:54:38.029Z,1.83
2022-10-20T12:57:26.359Z,2.10
2022-10-20T12:59:54.510Z,1.98
2022-10-20T13:02:52.441Z,2.40
2022-10-20T13:05:45.383Z,2.10
2022-10-20T13:08:31.795Z,2.00
2022-10-20T13:11:42.357Z,2.10
2022-10-20T13:14:28.929Z,1.90
2022-10-20T13:17:06.665Z,3.10
2022-10-20T13:19:44.605Z,2.83
2022-10-20T13:22:46.796Z,2.33
2022-10-20T13:25:27.477Z,1.95
2022-10-20T13:28:16.022Z,2.00
2022-10-20T13:31:00.737Z,2.40
2022-10-20T13:33:58.820Z,2.30
2022-10-20T13:36:35.346Z,2.10
2022-10-20T13:39:12.120Z,2.13
2022-10-20T13:41:48.075Z,2.50
2022-10-20T13:44:31.799Z,2.78
2022-10-20T13:47:09.555Z,1.95
2022-10-20T13:49:53.723Z,2.20
2022-10-20T13:52:22.545Z,2.60
2022-10-20T13:54:52.628Z,2.47
2022-10-20T13:57:28.953Z,2.30
2022-10-20T14:00:00.355Z,2.17
2022-10-20T14:02:31.353Z,2.35
2022-10-20T14:05:08.635Z,2.95
2022-10-20T14:07:38.708Z,2.65
2022-10-20T14:10:07.872Z,2.50
2022-10-20T14:12:36.501Z,2.10
2022-10-20T14:15:09.009Z,2.50
2022-10-20T14:17:40.742Z,2.47
2022-10-20T14:20:10.684Z,2.60
2022-10-20T14:22:44.916Z,2.13
2022-10-20T14:25:13.519Z,2.22
2022-10-20T14:27:41.955Z,2.88
2022-10-20T14:30:16.633Z,1.90
2022-10-20T14:32:46.149Z,2.53
2022-10-20T14:35:27.078Z,2.22
2022-10-20T14:37:59.615Z,2.17
2022-10-20T14:40:30.169Z,2.17
2022-10-20T14:43:00.966Z,2.08
2022-10-20T14:48:03.547Z,2.08
2022-10-20T14:50:36.405Z,1.80
2022-10-20T14:53:34.684Z,2.35
2022-10-20T14:56:04.043Z,2.40
2022-10-20T14:58:37.804Z,2.63
2022-10-20T15:01:25.931Z,2.35
2022-10-20T15:04:16.719Z,2.00
2022-10-20T15:06:45.324Z,2.58
2022-10-20T15:09:26.484Z,2.40
2022-10-20T15:11:54.752Z,2.35
2022-10-20T15:14:22.833Z,2.28
2022-10-20T15:16:52.449Z,4.22
2022-10-20T15:19:29.273Z,2.78
2022-10-20T15:24:44.648Z,2.83
2022-10-20T15:27:16.190Z,2.42
2022-10-20T15:29:49.798Z,2.65
2022-10-20T15:32:19.708Z,2.25
2022-10-20T15:34:47.502Z,3.00
2022-10-20T15:37:15.660Z,2.70
2022-10-20T15:39:44.734Z,2.70
2022-10-20T15:42:13.018Z,2.55
2022-10-20T15:44:40.877Z,3.03
2022-10-20T15:47:09.999Z,3.03
2022-10-20T15:49:39.175Z,2.90
2022-10-20T15:52:07.197Z,3.15
2022-10-20T15:54:35.005Z,2.83
2022-10-20T15:57:02.825Z,3.30
2022-10-20T15:59:30.695Z,3.20
2022-10-20T16:01:58.526Z,3.33
2022-10-20T16:04:27.156Z,3.45
2022-10-20T16:06:59.044Z,2.97
2022-10-20T16:09:28.292Z,3.33
2022-10-20T16:11:56.235Z,3.40
2022-10-20T16:14:24.132Z,3.45
2022-10-20T16:16:51.974Z,3.03
2022-10-20T16:19:20.382Z,3.58
2022-10-20T16:21:48.318Z,3.42
2022-10-20T16:24:17.502Z,4.15
2022-10-20T16:26:45.305Z,3.95
2022-10-20T16:29:13.115Z,3.75
2022-10-20T16:31:40.940Z,3.50
2022-10-20T16:34:08.764Z,3.70
2022-10-20T16:36:36.581Z,4.18
2022-10-20T16:39:04.424Z,3.75
2022-10-20T16:41:33.635Z,4.00
2022-10-20T16:44:01.523Z,4.13
2022-10-20T16:46:29.502Z,3.90
2022-10-20T16:48:57.454Z,3.95
2022-10-20T16:51:25.625Z,3.92
2022-10-20T16:53:57.275Z,3.50
2022-10-20T16:56:27.549Z,3.80
2022-10-20T16:58:57.604Z,4.00
2022-10-20T17:01:25.648Z,4.05
2022-10-20T17:03:54.701Z,4.05
2022-10-20T17:06:25.082Z,4.60
2022-10-20T17:08:53.544Z,4.18
2022-10-20T17:11:23.536Z,4.55
2022-10-20T17:13:52.130Z,4.07
2022-10-20T17:16:26.160Z,4.40
2022-10-20T17:18:57.059Z,4.60
2022-10-20T17:21:25.635Z,4.35
2022-10-20T17:23:53.531Z,4.63
2022-10-20T17:26:23.530Z,4.00
2022-10-20T17:28:54.245Z,4.35
2022-10-20T17:31:23.661Z,4.25
2022-10-20T17:33:52.164Z,4.28
2022-10-20T17:36:25.807Z,4.28
2022-10-20T17:38:58.343Z,4.00
2022-10-20T17:41:26.745Z,4.13
2022-10-20T17:43:54.611Z,3.92
2022-10-20T17:46:23.840Z,4.72
2022-10-20T17:48:51.623Z,4.05
2022-10-20T17:51:21.321Z,4.18
2022-10-20T17:53:51.087Z,4.07
2022-10-20T17:56:21.273Z,4.55
2022-10-20T17:58:50.921Z,4.45
2022-10-20T18:01:21.162Z,5.13
2022-10-20T18:03:55.803Z,4.35
2022-10-20T18:06:27.070Z,4.75
2022-10-20T18:08:58.435Z,3.97
2022-10-20T18:11:28.703Z,4.57
2022-10-20T18:13:59.396Z,4.32
2022-10-20T18:16:29.407Z,4.47
2022-10-20T18:18:59.525Z,4.47
2022-10-20T18:21:28.934Z,4.22
2022-10-20T18:23:57.449Z,4.15
2022-10-20T18:26:26.231Z,3.63
2022-10-20T18:28:54.071Z,4.43
2022-10-20T18:31:24.344Z,3.88
2022-10-20T18:33:57.193Z,4.72
2022-10-20T18:36:27.359Z,4.43
2022-10-20T18:38:55.517Z,4.35
2022-10-20T18:41:25.507Z,5.28
2022-10-20T18:43:57.820Z,4.03
2022-10-20T18:46:26.369Z,4.30
2022-10-20T18:48:54.353Z,4.25
2022-10-20T18:51:22.438Z,4.70
2022-10-20T18:53:54.709Z,5.03
2022-10-20T18:56:24.168Z,4.50
2022-10-20T18:58:53.859Z,4.78
2022-10-20T19:01:23.828Z,4.38
2022-10-20T19:03:54.608Z,5.25
2022-10-20T19:06:24.833Z,4.60
2022-10-20T19:08:56.574Z,4.70
2022-10-20T19:11:26.728Z,5.35
2022-10-20T19:13:55.148Z,4.53
2022-10-20T19:16:25.844Z,4.75
2022-10-20T19:18:55.518Z,5.03
2022-10-20T19:21:24.433Z,4.30
2022-10-20T19:23:57.801Z,5.00
2022-10-20T19:26:27.908Z,4.10
2022-10-20T19:28:59.557Z,4.20
2022-10-20T19:31:30.769Z,3.88
2022-10-20T19:34:01.004Z,4.15
2022-10-20T19:36:29.817Z,4.30
2022-10-20T19:38:59.123Z,4.38
2022-10-20T19:41:27.589Z,3.85
2022-10-20T19:43:55.846Z,4.80
2022-10-20T19:46:24.354Z,4.05
2022-10-20T19:48:52.762Z,4.57
2022-10-20T19:51:22.966Z,4.38
2022-10-20T19:53:51.012Z,3.83
2022-10-20T19:56:20.168Z,4.20
2022-10-20T19:58:48.975Z,3.95
2022-10-20T20:01:17.242Z,4.00
2022-10-20T20:03:45.566Z,4.30
2022-10-20T20:06:16.551Z,4.30
2022-10-20T20:08:45.596Z,3.97
2022-10-20T20:11:22.756Z,3.83
2022-10-20T20:13:53.618Z,4.85
2022-10-20T20:16:22.206Z,4.53
2022-10-20T20:18:50.331Z,3.50
2022-10-20T20:21:18.966Z,4.05
2022-10-20T20:23:59.027Z,4.32
2022-10-20T20:26:27.925Z,4.50
2022-10-20T20:28:57.392Z,4.90
2022-10-20T20:31:25.931Z,4.47
2022-10-20T20:33:54.076Z,4.50
2022-10-20T20:36:22.529Z,4.60
2022-10-20T20:38:52.607Z,4.35
2022-10-20T20:41:24.514Z,4.57
2022-10-20T20:43:52.329Z,4.57
2022-10-20T20:46:23.803Z,4.50
2022-10-20T20:48:51.683Z,3.97
2022-10-20T20:51:20.495Z,3.70
2022-10-20T20:53:48.557Z,4.65
2022-10-20T20:56:21.689Z,4.22
2022-10-20T20:58:54.965Z,3.92
2022-10-20T21:01:27.318Z,4.18
2022-10-20T21:03:56.117Z,4.57
2022-10-20T21:06:33.083Z,3.75
2022-10-20T21:09:02.482Z,4.25
2022-10-20T21:11:30.538Z,4.00
2022-10-20T21:13:59.862Z,4.05
2022-10-20T21:16:30.669Z,4.35
2022-10-20T21:19:00.709Z,4.70
2022-10-20T21:21:30.334Z,4.30
2022-10-20T21:23:59.085Z,4.22
2022-10-20T21:26:28.025Z,4.30
2022-10-20T21:28:56.037Z,4.60
2022-10-20T21:31:26.284Z,4.07
2022-10-20T21:33:57.152Z,4.72
2022-10-20T21:36:26.302Z,4.80
2022-10-20T21:38:54.124Z,4.45
2022-10-20T21:41:23.583Z,4.40
2022-10-20T21:43:53.014Z,5.10
2022-10-20T21:46:22.893Z,4.18
2022-10-20T21:48:52.710Z,5.07
2022-10-20T21:51:23.803Z,4.18
2022-10-20T21:53:55.653Z,4.20
2022-10-20T21:56:24.014Z,4.28
2022-10-20T21:58:52.460Z,4.10
2022-10-20T22:01:22.516Z,4.30
2022-10-20T22:03:51.530Z,3.97
2022-10-20T22:06:24.317Z,4.13
2022-10-20T22:08:54.625Z,3.95
2022-10-20T22:11:24.691Z,4.07
2022-10-20T22:13:52.785Z,4.13
2022-10-20T22:16:22.386Z,4.60
2022-10-20T22:18:54.699Z,4.13
2022-10-20T22:21:24.003Z,4.30
2022-10-20T22:23:54.583Z,4.53
2022-10-20T22:26:23.313Z,4.10
2022-10-20T22:28:51.847Z,3.95
2022-10-20T22:31:19.823Z,4.70
2022-10-20T22:33:47.786Z,4.57
2022-10-20T22:36:15.631Z,4.60
2022-10-20T22:38:44.844Z,4.43
2022-10-20T22:41:13.487Z,5.22
2022-10-20T22:43:41.754Z,3.80
2022-10-20T22:46:10.308Z,4.57
2022-10-20T22:48:38.500Z,5.20
2022-10-20T22:51:07.066Z,4.50
2022-10-20T22:53:35.083Z,5.82
2022-10-20T22:56:10.229Z,4.13
2022-10-20T22:58:39.224Z,5.05
2022-10-20T23:01:08.445Z,4.70
2022-10-20T23:03:36.384Z,4.70
2022-10-20T23:06:08.203Z,5.20
2022-10-20T23:08:40.056Z,4.63
2022-10-20T23:11:09.294Z,4.68
2022-10-20T23:13:37.419Z,4.13
2022-10-20T23:16:07.077Z,4.47
2022-10-20T23:18:35.353Z,5.03
2022-10-20T23:21:03.625Z,4.90
2022-10-20T23:23:32.364Z,5.05
2022-10-20T23:26:03.700Z,4.90
2022-10-20T23:28:34.242Z,5.18
2022-10-20T23:31:11.019Z,4.65
2022-10-20T23:33:39.666Z,4.60
2022-10-20T23:36:08.244Z,5.22
2022-10-20T23:38:36.240Z,5.18
2022-10-20T23:41:04.326Z,4.68
2022-10-20T23:43:34.041Z,4.80
2022-10-20T23:46:02.529Z,5.40
2022-10-20T23:48:30.524Z,4.90
2022-10-20T23:50:58.640Z,4.90
2022-10-20T23:53:26.626Z,4.80
2022-10-20T23:55:54.597Z,4.68
2022-10-20T23:58:23.210Z,5.10
